createdAt,value
2023-12-12T00:05:11.256Z,3.84
2023-12-12T00:12:27.203Z,3.77
2023-12-12T00:19:37.304Z,3.76
2023-12-12T00:26:50.803Z,3.76
2023-12-12T00:33:55.446Z,3.76
2023-12-12T00:41:01.504Z,3.75
2023-12-12T00:48:24.143Z,3.74
2023-12-12T00:55:37.060Z,3.71
2023-12-12T01:03:00.628Z,3.76
2023-12-12T01:10:01.641Z,3.81
2023-12-12T01:17:06.463Z,3.85
2023-12-12T01:24:31.050Z,3.89
2023-12-12T01:31:54.732Z,3.94
2023-12-12T01:38:57.481Z,3.95
2023-12-12T01:45:47.182Z,3.93
2023-12-12T01:52:51.112Z,3.91
2023-12-12T02:00:07.626Z,3.90
2023-12-12T02:07:31.607Z,3.91
2023-12-12T02:14:33.225Z,3.94
2023-12-12T02:21:39.439Z,3.96
2023-12-12T02:28:53.429Z,3.95
2023-12-12T02:36:04.131Z,3.95
2023-12-12T02:43:29.018Z,3.99
2023-12-12T02:50:47.951Z,3.98
2023-12-12T02:57:49.500Z,3.99
2023-12-12T03:04:42.337Z,4.00
2023-12-12T03:12:06.912Z,4.06
2023-12-12T03:19:15.437Z,4.16
2023-12-12T03:26:05.461Z,4.21
2023-12-12T03:32:55.410Z,4.26
2023-12-12T03:39:59.604Z,4.35
2023-12-12T03:47:03.395Z,4.40
2023-12-12T03:54:15.798Z,4.50
2023-12-12T04:01:24.027Z,4.56
2023-12-12T04:08:49.742Z,4.61
2023-12-12T04:15:44.150Z,4.65
2023-12-12T04:22:49.487Z,4.68
2023-12-12T04:29:53.309Z,4.70
2023-12-12T04:37:20.721Z,4.71
2023-12-12T04:44:15.642Z,4.68
2023-12-12T04:51:20.028Z,4.65
2023-12-12T04:58:30.367Z,4.60
2023-12-12T05:05:47.855Z,4.61
2023-12-12T05:12:51.629Z,4.66
2023-12-12T05:20:15.501Z,4.66
2023-12-12T05:27:39.087Z,4.69
2023-12-12T05:34:54.413Z,4.66
2023-12-12T05:42:04.381Z,4.68
2023-12-12T05:48:51.100Z,4.65
2023-12-12T05:56:02.875Z,4.59
2023-12-12T06:03:10.013Z,4.60
2023-12-12T06:10:23.705Z,4.56
2023-12-12T06:17:29.091Z,4.49
2023-12-12T06:24:35.481Z,4.39
2023-12-12T06:31:39.782Z,4.31
2023-12-12T06:38:43.700Z,4.21
2023-12-12T06:46:07.598Z,4.19
2023-12-12T06:53:31.002Z,4.23
2023-12-12T07:00:50.297Z,4.25
2023-12-12T07:08:14.026Z,4.21
2023-12-12T07:14:58.996Z,4.23
2023-12-12T07:22:15.972Z,4.25
2023-12-12T07:29:11.964Z,4.32
2023-12-12T07:36:11.607Z,4.37
2023-12-12T07:43:05.393Z,4.42
2023-12-12T07:50:04.185Z,4.51
2023-12-12T07:56:50.392Z,4.57
2023-12-12T08:03:44.995Z,4.63
2023-12-12T08:10:39.675Z,4.58
2023-12-12T08:18:03.320Z,4.61
2023-12-12T08:25:01.301Z,4.69
2023-12-12T08:31:55.111Z,4.73
2023-12-12T08:39:01.623Z,4.79
2023-12-12T08:45:52.569Z,4.83
2023-12-12T08:52:46.707Z,4.78
2023-12-12T08:59:32.653Z,4.74
2023-12-12T09:06:48.322Z,4.79
2023-12-12T09:13:36.827Z,4.89
2023-12-12T09:20:40.533Z,4.89
2023-12-12T09:27:48.608Z,4.94
2023-12-12T09:34:52.363Z,4.93
2023-12-12T09:42:17.874Z,4.97
2023-12-12T09:49:25.130Z,5.01
2023-12-12T09:56:29.724Z,5.08
2023-12-12T10:03:32.036Z,5.14
2023-12-12T10:10:56.628Z,5.15
2023-12-12T10:17:52.560Z,5.18
2023-12-12T10:24:38.995Z,5.24
2023-12-12T10:31:42.725Z,5.22
2023-12-12T10:38:56.029Z,5.26
2023-12-12T10:46:08.954Z,5.39
2023-12-12T10:53:13.150Z,5.53
2023-12-12T11:00:04.417Z,5.77
2023-12-12T11:07:24.933Z,6.09
2023-12-12T11:14:34.273Z,6.30
2023-12-12T11:21:45.546Z,6.45
2023-12-12T11:28:34.523Z,6.55
2023-12-12T11:35:38.156Z,6.60
2023-12-12T11:42:25.098Z,6.70
2023-12-12T11:49:27.694Z,6.90
2023-12-12T11:56:25.106Z,7.01
2023-12-12T12:03:22.516Z,7.19
2023-12-12T12:10:10.948Z,7.30
2023-12-12T12:17:05.197Z,7.45
2023-12-12T12:24:11.487Z,7.66
2023-12-12T12:31:27.641Z,7.67
2023-12-12T12:38:34.393Z,7.41
2023-12-12T12:45:29.565Z,7.18
2023-12-12T12:52:16.846Z,7.04
2023-12-12T12:59:19.623Z,6.96
2023-12-12T13:06:16.284Z,6.97
2023-12-12T13:13:08.687Z,6.98
2023-12-12T13:20:13.277Z,7.05
2023-12-12T13:27:04.124Z,7.12
2023-12-12T13:34:04.038Z,7.11
2023-12-12T13:41:00.589Z,7.12
2023-12-12T13:47:59.296Z,7.15
2023-12-12T13:54:55.909Z,7.17
2023-12-12T14:01:59.958Z,7.16
2023-12-12T14:09:18.171Z,7.09
2023-12-12T14:16:52.166Z,6.99
2023-12-12T14:23:44.165Z,6.96
2023-12-12T14:30:06.509Z,6.94
2023-12-12T14:37:08.208Z,6.88
2023-12-12T14:43:37.014Z,6.81
2023-12-12T14:50:01.808Z,6.75
2023-12-12T14:56:29.181Z,6.70
2023-12-12T15:03:14.729Z,6.66
2023-12-12T15:09:45.774Z,6.59
2023-12-12T15:16:42.693Z,6.52
2023-12-12T15:23:34.049Z,6.44
2023-12-12T15:30:42.945Z,6.37
2023-12-12T15:38:05.913Z,6.28
2023-12-12T15:44:33.686Z,6.20
2023-12-12T15:51:38.604Z,6.13
2023-12-12T15:58:28.846Z,6.09
2023-12-12T16:05:03.706Z,6.04
2023-12-12T16:11:44.449Z,6.01
2023-12-12T16:18:51.871Z,6.00
2023-12-12T16:25:21.447Z,5.97
2023-12-12T16:32:13.003Z,5.96
2023-12-12T16:38:54.654Z,5.96
2023-12-12T16:44:35.995Z,5.99
2023-12-12T16:50:57.807Z,5.95
2023-12-12T16:57:39.813Z,5.90
2023-12-12T17:04:40.178Z,5.85
2023-12-12T17:11:43.314Z,5.84
2023-12-12T17:18:33.302Z,5.82
2023-12-12T17:25:23.173Z,5.79
2023-12-12T17:32:08.507Z,5.76
2023-12-12T17:38:46.440Z,5.64
2023-12-12T17:45:33.391Z,5.55
2023-12-12T17:52:39.434Z,5.49
2023-12-12T17:58:37.396Z,5.47
2023-12-12T18:05:19.663Z,5.48
2023-12-12T18:11:54.046Z,5.44
2023-12-12T18:19:09.496Z,5.38
2023-12-12T18:25:34.288Z,5.33
2023-12-12T18:31:53.666Z,5.28
2023-12-12T18:38:34.430Z,5.22
2023-12-12T18:45:38.771Z,5.16
2023-12-12T18:52:52.159Z,5.09
2023-12-12T18:59:24.962Z,5.01
2023-12-12T19:05:34.029Z,4.91
2023-12-12T19:11:55.504Z,4.79
2023-12-12T19:18:26.012Z,4.73
2023-12-12T19:25:02.877Z,4.70
2023-12-12T19:31:14.449Z,4.66
2023-12-12T19:38:15.679Z,4.57
2023-12-12T19:45:21.733Z,4.46
2023-12-12T19:52:15.442Z,4.35
2023-12-12T19:58:48.408Z,4.25
2023-12-12T20:05:49.192Z,4.13
2023-12-12T20:12:33.304Z,4.05
2023-12-12T20:19:10.780Z,4.02
2023-12-12T20:25:38.235Z,4.00
2023-12-12T20:32:12.430Z,3.98
2023-12-12T20:39:20.345Z,3.98
2023-12-12T20:53:22.390Z,3.99
2023-12-12T21:00:44.870Z,4.02
2023-12-12T21:08:06.042Z,4.07
2023-12-12T21:15:19.094Z,3.98
2023-12-12T21:22:46.266Z,3.89
2023-12-12T21:29:49.976Z,3.80
2023-12-12T21:37:05.068Z,3.68
2023-12-12T21:43:22.723Z,3.61
2023-12-12T21:50:06.954Z,3.50
2023-12-12T21:57:19.535Z,3.49
2023-12-12T22:04:14.405Z,3.40
2023-12-12T22:11:10.661Z,3.48
2023-12-12T22:18:18.444Z,3.64
2023-12-12T22:25:02.924Z,3.74
2023-12-12T22:32:05.965Z,3.82
2023-12-12T22:38:32.449Z,3.84
2023-12-12T22:45:37.014Z,3.90
2023-12-12T22:52:09.729Z,3.97
2023-12-12T22:59:00.301Z,3.96
2023-12-12T23:05:50.950Z,4.07
2023-12-12T23:12:12.199Z,4.19
2023-12-12T23:18:55.970Z,4.26
2023-12-12T23:25:41.684Z,4.29
2023-12-12T23:32:37.125Z,4.33
2023-12-12T23:39:23.629Z,4.45
2023-12-12T23:45:58.000Z,4.47
2023-12-12T23:53:21.406Z,4.52
